createdAt,value
2022-12-01T00:00:08.316Z,98639.56
2022-12-01T00:02:09.753Z,98639.56
2022-12-01T00:04:11.112Z,98634.44
2022-12-01T00:06:12.407Z,98634.44
2022-12-01T00:08:13.743Z,98641.22
2022-12-01T00:10:27.273Z,98637.84
2022-12-01T00:12:28.540Z,98633.59
2022-12-01T00:14:29.804Z,98638.66
2022-12-01T00:16:31.196Z,98636.91
2022-12-01T00:18:32.552Z,98626.63
2022-12-01T00:20:33.833Z,98621.41
2022-12-01T00:22:35.145Z,98626.50
2022-12-01T00:24:36.443Z,98618.72
2022-12-01T00:26:37.739Z,98614.41
2022-12-01T00:28:39.140Z,98615.19
2022-12-01T00:30:40.429Z,98606.63
2022-12-01T00:32:41.841Z,98616.78
2022-12-01T00:34:43.109Z,98613.31
2022-12-01T00:36:44.383Z,98616.69
2022-12-01T00:38:45.761Z,98618.31
2022-12-01T00:40:47.076Z,98613.25
2022-12-01T00:42:48.345Z,98600.78
2022-12-01T00:44:49.683Z,98616.72
2022-12-01T00:46:50.977Z,98613.34
2022-12-01T00:48:52.284Z,98615.94
2022-12-01T00:50:53.596Z,98616.84
2022-12-01T00:52:54.935Z,98617.75
2022-12-01T00:54:56.209Z,98624.53
2022-12-01T00:56:57.493Z,98623.75
2022-12-01T00:58:58.819Z,98614.50
2022-12-01T01:01:00.195Z,98625.59
2022-12-01T01:03:01.589Z,98629.09
2022-12-01T01:05:02.864Z,98627.41
2022-12-01T01:07:04.159Z,98617.25
2022-12-01T01:09:05.491Z,98619.75
2022-12-01T01:11:06.837Z,98471.06
2022-12-01T01:13:08.105Z,98611.28
2022-12-01T01:15:09.376Z,98612.13
2022-12-01T01:17:10.656Z,98604.47
2022-12-01T01:19:12.319Z,98607.94
2022-12-01T01:21:13.625Z,98605.44
2022-12-01T01:23:14.900Z,98599.47
2022-12-01T01:25:16.193Z,98597.78
2022-12-01T01:27:17.496Z,98593.53
2022-12-01T01:29:18.828Z,98591.84
2022-12-01T01:31:20.653Z,98594.34
2022-12-01T01:33:21.988Z,98591.78
2022-12-01T01:35:23.333Z,98593.47
2022-12-01T01:37:24.625Z,98594.31
2022-12-01T01:39:25.904Z,98591.69
2022-12-01T01:41:27.236Z,98592.50
2022-12-01T01:43:28.520Z,98591.59
2022-12-01T01:45:29.813Z,98595.78
2022-12-01T01:47:31.095Z,98599.13
2022-12-01T01:49:32.373Z,98601.56
2022-12-01T01:51:33.679Z,98610.84
2022-12-01T01:53:34.968Z,98606.53
2022-12-01T01:55:36.308Z,98603.94
2022-12-01T01:57:37.876Z,98598.78
2022-12-01T01:59:39.160Z,98613.22
2022-12-01T02:01:40.673Z,98607.28
2022-12-01T02:03:42.313Z,98607.25
2022-12-01T02:05:44.943Z,98608.09
2022-12-01T02:07:46.270Z,98612.31
2022-12-01T02:09:47.942Z,98597.00
2022-12-01T02:11:49.556Z,98594.50
2022-12-01T02:13:51.484Z,98596.19
2022-12-01T02:15:52.745Z,98587.75
2022-12-01T02:17:54.049Z,98590.34
2022-12-01T02:19:55.328Z,98590.41
2022-12-01T02:21:56.636Z,98599.84
2022-12-01T02:23:57.919Z,98593.06
2022-12-01T02:25:59.192Z,98599.06
2022-12-01T02:28:00.458Z,98595.75
2022-12-01T02:30:01.769Z,98600.03
2022-12-01T02:32:03.069Z,98601.72
2022-12-01T02:34:04.352Z,98603.44
2022-12-01T02:36:05.672Z,98601.72
2022-12-01T02:38:06.947Z,98600.19
2022-12-01T02:40:08.303Z,98595.19
2022-12-01T02:42:09.689Z,98594.38
2022-12-01T02:44:11.024Z,98585.03
2022-12-01T02:46:12.751Z,98591.88
2022-12-01T02:48:14.132Z,98597.00
2022-12-01T02:50:15.419Z,98597.84
2022-12-01T02:52:16.683Z,98594.44
2022-12-01T02:54:17.988Z,98596.13
2022-12-01T02:56:19.256Z,98592.69
2022-12-01T02:58:20.541Z,98594.34
2022-12-01T03:00:21.832Z,98601.94
2022-12-01T03:02:24.643Z,98602.72
2022-12-01T03:04:26.008Z,98591.53
2022-12-01T03:06:27.773Z,98592.34
2022-12-01T03:08:29.056Z,98594.75
2022-12-01T03:10:30.332Z,98590.44
2022-12-01T03:12:31.647Z,98598.03
2022-12-01T03:14:32.928Z,98587.75
2022-12-01T03:16:34.256Z,98593.63
2022-12-01T03:18:35.587Z,98599.59
2022-12-01T03:20:36.857Z,98597.84
2022-12-01T03:22:38.177Z,98594.41
2022-12-01T03:24:39.485Z,98599.50
2022-12-01T03:26:40.804Z,98596.97
2022-12-01T03:28:42.113Z,98605.53
2022-12-01T03:30:43.395Z,98599.66
2022-12-01T03:32:47.380Z,98606.59
2022-12-01T03:34:49.898Z,98604.97
2022-12-01T03:36:51.188Z,98604.19
2022-12-01T03:38:52.683Z,98609.38
2022-12-01T03:40:54.004Z,98602.59
2022-12-01T03:42:55.281Z,98602.56
2022-12-01T03:44:56.574Z,98596.78
2022-12-01T03:46:58.106Z,98596.13
2022-12-01T03:48:59.380Z,98601.34
2022-12-01T03:51:01.436Z,98606.56
2022-12-01T03:53:02.703Z,98606.50
2022-12-01T03:55:04.532Z,98608.34
2022-12-01T03:57:05.823Z,98608.84
2022-12-01T03:59:07.144Z,98623.50
2022-12-01T04:01:08.410Z,98626.19
2022-12-01T04:03:09.762Z,98621.78
2022-12-01T04:05:11.087Z,98621.06
2022-12-01T04:07:13.548Z,98611.66
2022-12-01T04:09:14.972Z,98610.34
2022-12-01T04:11:35.269Z,98610.78
2022-12-01T04:13:36.952Z,98602.00
2022-12-01T04:15:38.302Z,98609.47
2022-12-01T04:17:39.742Z,98608.38
2022-12-01T04:19:41.027Z,98612.50
2022-12-01T04:21:42.352Z,98600.47
2022-12-01T04:24:01.966Z,98608.03
2022-12-01T04:26:03.280Z,98603.72
2022-12-01T04:28:04.565Z,98602.75
2022-12-01T04:30:05.900Z,98603.50
2022-12-01T04:32:07.232Z,98607.72
2022-12-01T04:34:08.543Z,98606.81
2022-12-01T04:36:10.031Z,98602.44
2022-12-01T04:38:11.724Z,98607.56
2022-12-01T04:40:13.062Z,98594.69
2022-12-01T04:42:14.371Z,98605.72
2022-12-01T04:44:15.706Z,98605.69
2022-12-01T04:46:17.015Z,98606.53
2022-12-01T04:48:18.313Z,98606.50
2022-12-01T04:50:19.647Z,98610.75
2022-12-01T04:52:20.958Z,98604.75
2022-12-01T04:54:22.359Z,98598.75
2022-12-01T04:56:23.697Z,98600.41
2022-12-01T04:58:24.990Z,98594.50
2022-12-01T05:00:26.291Z,98597.84
2022-12-01T05:02:27.755Z,98597.91
2022-12-01T05:04:31.195Z,98606.47
2022-12-01T05:06:32.685Z,98592.94
2022-12-01T05:08:34.541Z,98597.38
2022-12-01T05:10:36.288Z,98597.50
2022-12-01T05:12:37.568Z,98596.78
2022-12-01T05:14:38.865Z,98595.19
2022-12-01T05:16:40.681Z,98602.13
2022-12-01T05:18:42.146Z,98606.50
2022-12-01T05:20:59.130Z,98607.44
2022-12-01T05:23:10.766Z,98610.06
2022-12-01T05:25:13.488Z,98615.25
2022-12-01T05:27:14.788Z,98617.00
2022-12-01T05:29:16.060Z,98615.34
2022-12-01T05:31:17.424Z,98613.66
2022-12-01T05:33:18.734Z,98616.25
2022-12-01T05:35:20.026Z,98607.81
2022-12-01T05:37:21.331Z,98609.53
2022-12-01T05:39:22.635Z,98611.25
2022-12-01T05:41:24.086Z,98614.59
2022-12-01T05:43:28.942Z,98623.13
2022-12-01T05:45:31.623Z,98612.03
2022-12-01T05:47:32.928Z,98617.94
2022-12-01T05:49:34.231Z,98628.94
2022-12-01T05:51:35.601Z,98620.31
2022-12-01T05:53:36.952Z,98625.34
2022-12-01T05:55:38.275Z,98630.38
2022-12-01T05:57:39.787Z,98626.00
2022-12-01T05:59:41.073Z,98617.41
2022-12-01T06:01:42.379Z,98629.28
2022-12-01T06:03:43.770Z,98628.41
2022-12-01T06:05:45.080Z,98624.91
2022-12-01T06:07:46.452Z,98624.81
2022-12-01T06:09:48.185Z,98624.78
2022-12-01T06:11:52.508Z,98621.31
2022-12-01T06:13:54.056Z,98618.72
2022-12-01T06:15:55.397Z,98628.00
2022-12-01T06:17:56.690Z,98625.44
2022-12-01T06:19:58.025Z,98627.22
2022-12-01T06:21:59.308Z,98622.94
2022-12-01T06:24:00.620Z,98628.09
2022-12-01T06:26:02.107Z,98635.72
2022-12-01T06:28:03.575Z,98631.44
2022-12-01T06:30:04.858Z,98638.31
2022-12-01T06:32:06.221Z,98639.16
2022-12-01T06:34:07.590Z,98638.34
2022-12-01T06:36:09.837Z,98637.56
2022-12-01T06:38:11.192Z,98638.50
2022-12-01T06:40:12.511Z,98641.09
2022-12-01T06:42:13.808Z,98635.19
2022-12-01T06:44:15.159Z,98641.25
2022-12-01T06:46:16.579Z,98636.19
2022-12-01T06:48:18.238Z,98646.47
2022-12-01T06:50:19.679Z,98642.28
2022-12-01T06:52:21.011Z,98644.88
2022-12-01T06:54:22.606Z,98645.81
2022-12-01T06:56:24.183Z,98648.41
2022-12-01T06:58:25.942Z,98646.75
2022-12-01T07:00:27.680Z,98645.94
2022-12-01T07:02:29.192Z,98646.81
2022-12-01T07:04:31.085Z,98650.25
2022-12-01T07:06:32.379Z,98648.59
2022-12-01T07:08:33.907Z,98655.41
2022-12-01T07:10:35.219Z,98658.78
2022-12-01T07:12:36.625Z,98657.13
2022-12-01T07:14:37.976Z,98655.34
2022-12-01T07:16:39.311Z,98663.84
2022-12-01T07:18:40.693Z,98657.81
2022-12-01T07:20:41.985Z,98656.88
2022-12-01T07:22:43.774Z,98659.38
2022-12-01T07:24:45.056Z,98658.47
2022-12-01T07:26:46.464Z,98530.88
2022-12-01T07:28:47.807Z,98661.75
2022-12-01T07:30:49.166Z,98663.41
2022-12-01T07:32:50.638Z,98666.81
2022-12-01T07:34:51.903Z,98665.03
2022-12-01T07:36:53.232Z,98665.81
2022-12-01T07:38:54.528Z,98668.34
2022-12-01T07:40:55.812Z,98658.09
2022-12-01T07:42:57.247Z,98659.78
2022-12-01T07:44:58.571Z,98661.41
2022-12-01T07:47:00.090Z,98666.53
2022-12-01T07:49:01.432Z,98669.97
2022-12-01T07:51:02.835Z,98662.31
2022-12-01T07:53:04.180Z,98668.28
2022-12-01T07:55:05.492Z,98664.00
2022-12-01T07:57:07.039Z,98672.53
2022-12-01T07:59:08.435Z,98663.19
2022-12-01T08:01:09.927Z,98670.91
2022-12-01T08:03:11.347Z,98670.03
2022-12-01T08:05:12.726Z,98670.94
2022-12-01T08:07:14.087Z,98672.66
2022-12-01T08:09:15.389Z,98674.41
2022-12-01T08:11:16.738Z,98672.72
2022-12-01T08:13:18.060Z,98668.50
2022-12-01T08:15:19.379Z,98678.78
2022-12-01T08:17:20.766Z,98671.16
2022-12-01T08:19:22.067Z,98678.00
2022-12-01T08:21:23.387Z,98674.66
2022-12-01T08:23:24.681Z,98680.69
2022-12-01T08:25:26.143Z,98669.66
2022-12-01T08:27:27.433Z,98679.03
2022-12-01T08:29:28.749Z,98683.31
2022-12-01T08:31:30.085Z,98675.69
2022-12-01T08:33:31.579Z,98674.03
2022-12-01T08:35:33.881Z,98676.56
2022-12-01T08:37:35.489Z,98685.09
2022-12-01T08:39:36.985Z,98680.84
2022-12-01T08:41:38.265Z,98679.97
2022-12-01T08:43:57.105Z,98675.69
2022-12-01T08:46:00.038Z,98679.03
2022-12-01T08:48:01.403Z,98678.16
2022-12-01T08:50:05.032Z,98684.03
2022-12-01T08:52:06.329Z,98685.66
2022-12-01T08:54:07.653Z,98683.06
2022-12-01T08:56:08.938Z,98683.88
2022-12-01T08:58:10.236Z,98683.84
2022-12-01T09:00:11.560Z,98682.06
2022-12-01T09:02:12.946Z,98683.78
2022-12-01T09:04:14.315Z,98684.56
2022-12-01T09:06:15.788Z,98685.41
2022-12-01T09:08:32.156Z,98681.97
2022-12-01T09:10:33.449Z,98689.56
2022-12-01T09:12:34.729Z,98693.03
2022-12-01T09:14:36.208Z,98693.81
2022-12-01T09:16:37.599Z,98695.59
2022-12-01T09:18:38.998Z,98693.03
2022-12-01T09:20:40.281Z,98697.25
2022-12-01T09:22:41.602Z,98693.03
2022-12-01T09:24:42.896Z,98691.34
2022-12-01T09:26:44.201Z,98694.78
2022-12-01T09:28:45.494Z,98723.78
2022-12-01T09:30:46.855Z,98692.34
2022-12-01T09:32:48.158Z,98683.84
2022-12-01T09:34:49.573Z,98688.13
2022-12-01T09:36:50.899Z,98681.34
2022-12-01T09:38:52.183Z,98683.97
2022-12-01T09:40:53.855Z,98676.38
2022-12-01T09:42:55.144Z,98687.44
2022-12-01T09:44:57.156Z,98684.06
2022-12-01T09:46:58.532Z,98676.47
2022-12-01T09:49:00.938Z,98679.88
2022-12-01T09:51:02.293Z,98672.25
2022-12-01T09:53:03.847Z,98675.66
2022-12-01T09:55:05.147Z,98674.84
2022-12-01T09:57:06.486Z,98674.84
2022-12-01T09:59:08.169Z,98676.53
2022-12-01T10:01:09.509Z,98675.72
2022-12-01T10:03:10.864Z,98675.72
2022-12-01T10:05:12.252Z,98678.28
2022-12-01T10:07:13.582Z,98674.88
2022-12-01T10:09:14.866Z,98668.03
2022-12-01T10:11:16.190Z,98668.03
2022-12-01T10:13:17.509Z,98669.66
2022-12-01T10:15:18.795Z,98668.78
2022-12-01T10:17:20.099Z,98678.06
2022-12-01T10:19:21.441Z,98675.47
2022-12-01T10:21:22.724Z,98675.44
2022-12-01T10:23:24.040Z,98677.13
2022-12-01T10:25:25.372Z,98675.41
2022-12-01T10:27:26.657Z,98664.31
2022-12-01T10:29:28.313Z,98674.47
2022-12-01T10:31:29.667Z,98673.63
2022-12-01T10:33:31.165Z,98664.25
2022-12-01T10:35:36.856Z,98671.88
2022-12-01T10:37:38.207Z,98665.91
2022-12-01T10:39:39.697Z,98659.94
2022-12-01T10:41:41.009Z,98656.53
2022-12-01T10:43:42.280Z,98659.94
2022-12-01T10:45:44.204Z,98655.66
2022-12-01T10:47:45.545Z,98659.84
2022-12-01T10:49:47.019Z,98659.91
2022-12-01T10:51:48.387Z,98659.06
2022-12-01T10:53:49.679Z,98660.78
2022-12-01T10:55:51.194Z,98652.25
2022-12-01T10:57:52.477Z,98654.81
2022-12-01T10:59:53.981Z,98649.72
2022-12-01T11:01:55.383Z,98649.72
2022-12-01T11:03:57.021Z,98500.13
2022-12-01T11:05:58.481Z,98647.22
2022-12-01T11:07:59.863Z,98651.44
2022-12-01T11:10:01.206Z,98655.78
2022-12-01T11:12:02.535Z,98663.47
2022-12-01T11:14:03.906Z,98653.28
2022-12-01T11:16:05.210Z,98654.19
2022-12-01T11:18:06.536Z,98650.81
2022-12-01T11:20:07.852Z,98653.38
2022-12-01T11:22:09.188Z,98651.72
2022-12-01T11:24:10.508Z,98642.38
2022-12-01T11:26:11.863Z,98642.41
2022-12-01T11:28:13.145Z,98631.34
2022-12-01T11:30:14.484Z,98646.66
2022-12-01T11:32:15.866Z,98636.50
2022-12-01T11:34:17.219Z,98634.81
2022-12-01T11:36:18.546Z,98632.25
2022-12-01T11:38:35.135Z,98633.13
2022-12-01T11:40:36.424Z,98628.84
2022-12-01T11:42:37.748Z,98630.53
2022-12-01T11:44:54.265Z,98623.72
2022-12-01T11:47:21.780Z,98628.78
2022-12-01T11:49:16.933Z,98624.53
2022-12-01T11:51:18.212Z,98624.50
2022-12-01T11:53:19.480Z,98627.88
2022-12-01T11:55:20.808Z,98620.19
2022-12-01T11:57:37.170Z,98619.25
2022-12-01T11:59:38.481Z,98620.16
2022-12-01T12:01:39.841Z,98626.88
2022-12-01T12:03:41.167Z,98624.34
2022-12-01T12:05:42.926Z,98631.97
2022-12-01T12:07:44.306Z,98630.22
2022-12-01T12:09:45.672Z,98624.28
2022-12-01T12:11:46.945Z,98623.41
2022-12-01T12:13:48.782Z,98631.03
2022-12-01T12:15:50.306Z,98627.69
2022-12-01T12:17:51.671Z,98619.13
2022-12-01T12:20:07.643Z,98621.69
2022-12-01T12:22:09.712Z,98624.22
2022-12-01T12:24:11.016Z,98625.09
2022-12-01T12:26:12.361Z,98614.88
2022-12-01T12:28:13.660Z,98618.25
2022-12-01T12:30:14.953Z,98614.88
2022-12-01T12:32:16.234Z,98609.75
2022-12-01T12:34:19.159Z,98614.88
2022-12-01T12:36:20.463Z,98607.19
2022-12-01T12:38:21.790Z,98609.75
2022-12-01T12:40:23.081Z,98615.72
2022-12-01T12:42:24.344Z,98614.00
2022-12-01T12:44:25.671Z,98615.72
2022-12-01T12:46:26.970Z,98619.16
2022-12-01T12:48:31.253Z,98614.06
2022-12-01T12:50:32.545Z,98622.56
2022-12-01T12:52:33.856Z,98622.56
2022-12-01T12:54:35.249Z,98626.03
2022-12-01T12:56:36.597Z,98625.19
2022-12-01T12:58:37.871Z,98618.38
2022-12-01T13:00:39.171Z,98621.81
2022-12-01T13:02:40.622Z,98619.28
2022-12-01T13:04:41.978Z,98621.03
2022-12-01T13:06:43.278Z,98621.88
2022-12-01T13:08:47.581Z,98610.81
2022-12-01T13:10:48.875Z,98614.22
2022-12-01T13:12:50.180Z,98611.66
2022-12-01T13:14:55.143Z,98615.06
2022-12-01T13:16:59.131Z,98605.75
2022-12-01T13:19:03.209Z,98612.56
2022-12-01T13:21:04.552Z,98606.66
2022-12-01T13:23:05.900Z,98603.03
2022-12-01T13:25:07.721Z,98606.41
2022-12-01T13:27:09.009Z,98598.69
2022-12-01T13:29:10.296Z,98605.72
2022-12-01T13:31:11.682Z,98601.88
2022-12-01T13:33:13.011Z,98598.72
2022-12-01T13:35:14.291Z,98610.13
2022-12-01T13:37:15.686Z,98601.81
2022-12-01T13:39:16.953Z,98602.00
2022-12-01T13:41:18.258Z,98595.31
2022-12-01T13:43:19.580Z,98609.53
2022-12-01T13:45:20.903Z,98612.22
2022-12-01T13:47:22.243Z,98598.63
2022-12-01T13:49:23.523Z,98601.00
2022-12-01T13:51:24.890Z,98599.63
2022-12-01T13:56:07.428Z,98584.91
2022-12-01T13:58:08.816Z,98594.91
2022-12-01T14:00:11.048Z,98595.97
2022-12-01T14:02:12.425Z,98591.66
2022-12-01T14:04:13.736Z,98588.13
2022-12-01T14:06:15.060Z,98590.06
2022-12-01T14:08:21.399Z,98588.13
2022-12-01T14:10:24.552Z,98585.91
2022-12-01T14:12:25.896Z,98583.53
2022-12-01T14:14:27.223Z,98580.16
2022-12-01T14:16:28.596Z,98586.38
2022-12-01T14:18:30.268Z,98582.31
2022-12-01T14:20:31.585Z,98578.66
2022-12-01T14:22:33.125Z,98580.59
2022-12-01T14:24:34.661Z,98580.81
2022-12-01T14:26:36.695Z,98579.88
2022-12-01T14:28:40.009Z,98588.41
2022-12-01T14:30:45.704Z,98586.75
2022-12-01T14:32:47.023Z,98585.91
2022-12-01T14:34:48.668Z,98584.25
2022-12-01T14:36:50.107Z,98583.47
2022-12-01T14:38:51.416Z,98575.91
2022-12-01T14:40:52.704Z,98583.63
2022-12-01T14:43:12.577Z,98589.03
2022-12-01T14:45:13.958Z,98592.66
2022-12-01T14:47:16.107Z,98592.00
2022-12-01T14:49:17.837Z,98581.56
2022-12-01T14:51:19.180Z,98596.16
2022-12-01T14:53:20.513Z,98588.88
2022-12-01T14:55:21.798Z,98589.91
2022-12-01T14:57:23.536Z,98588.25
2022-12-01T14:59:26.287Z,98588.31
2022-12-01T15:01:27.646Z,98591.72
2022-12-01T15:03:32.034Z,98589.44
2022-12-01T15:05:33.508Z,98587.28
2022-12-01T15:07:34.892Z,98587.19
2022-12-01T15:09:36.517Z,98586.53
2022-12-01T15:11:39.368Z,98573.88
2022-12-01T15:13:40.653Z,98574.09
2022-12-01T15:15:41.944Z,98574.19
2022-12-01T15:17:43.224Z,98570.66
2022-12-01T15:19:44.508Z,98570.66
2022-12-01T15:21:45.821Z,98569.91
2022-12-01T15:23:47.121Z,98572.09
2022-12-01T15:25:48.456Z,98570.59
2022-12-01T15:27:49.735Z,98574.94
2022-12-01T15:29:51.232Z,98577.50
2022-12-01T15:31:53.378Z,98578.75
2022-12-01T15:33:54.821Z,98566.38
2022-12-01T15:35:56.162Z,98563.63
2022-12-01T15:37:57.508Z,98572.78
2022-12-01T15:40:43.057Z,98576.13
2022-12-01T15:42:20.093Z,98565.47
2022-12-01T15:44:21.448Z,98569.16
2022-12-01T15:46:22.797Z,98564.63
2022-12-01T15:48:24.106Z,98561.97
2022-12-01T15:50:25.384Z,98560.56
2022-12-01T15:52:26.674Z,98444.03
2022-12-01T15:54:27.996Z,98559.41
2022-12-01T15:56:32.006Z,98569.06
2022-12-01T15:58:33.324Z,98562.50
2022-12-01T16:00:34.616Z,98592.41
2022-12-01T16:02:36.000Z,98564.69
2022-12-01T16:04:37.354Z,98572.78
2022-12-01T16:06:38.633Z,98570.19
2022-12-01T16:08:40.024Z,98567.22
2022-12-01T16:10:41.444Z,98567.91
2022-12-01T16:12:42.725Z,98567.00
2022-12-01T16:14:44.000Z,98560.34
2022-12-01T16:16:45.364Z,98567.81
2022-12-01T16:18:46.717Z,98561.84
2022-12-01T16:20:48.058Z,98564.66
2022-12-01T16:22:49.381Z,98573.28
2022-12-01T16:24:50.922Z,98557.88
2022-12-01T16:26:52.465Z,98559.31
2022-12-01T16:28:53.752Z,98560.19
2022-12-01T16:30:55.185Z,98562.59
2022-12-01T16:32:56.609Z,98553.97
2022-12-01T16:34:58.146Z,98553.94
2022-12-01T16:36:59.588Z,98553.06
2022-12-01T16:39:01.016Z,98558.22
2022-12-01T16:41:02.293Z,98571.00
2022-12-01T16:43:03.576Z,98563.16
2022-12-01T16:45:04.864Z,98555.72
2022-12-01T16:47:06.141Z,98557.41
2022-12-01T16:49:07.885Z,98563.44
2022-12-01T16:51:09.209Z,98572.75
2022-12-01T16:53:14.031Z,98560.72
2022-12-01T16:55:15.413Z,98567.31
2022-12-01T16:57:17.388Z,98567.97
2022-12-01T16:59:18.668Z,98566.50
2022-12-01T17:01:22.956Z,98564.06
2022-12-01T17:03:24.317Z,98564.91
2022-12-01T17:05:25.608Z,98566.50
2022-12-01T17:07:27.111Z,98564.66
2022-12-01T17:09:31.347Z,98568.00
2022-12-01T17:11:32.623Z,98573.03
2022-12-01T17:13:33.940Z,98573.13
2022-12-01T17:15:35.304Z,98574.38
2022-12-01T17:17:36.692Z,98569.31
2022-12-01T17:19:38.012Z,98574.84
2022-12-01T17:21:39.356Z,98577.19
2022-12-01T17:23:40.714Z,98572.56
2022-12-01T17:25:42.066Z,98556.03
2022-12-01T17:27:44.022Z,98572.38
2022-12-01T17:29:46.335Z,98567.16
2022-12-01T17:31:48.018Z,98568.47
2022-12-01T17:33:50.144Z,98558.94
2022-12-01T17:35:51.490Z,98564.75
2022-12-01T17:37:52.768Z,98565.47
2022-12-01T17:39:54.532Z,98557.78
2022-12-01T17:41:55.818Z,98572.31
2022-12-01T17:43:57.120Z,98564.72
2022-12-01T17:45:58.440Z,98573.19
2022-12-01T17:47:59.736Z,98576.66
2022-12-01T17:50:01.121Z,98565.56
2022-12-01T17:52:02.484Z,98572.44
2022-12-01T17:54:06.795Z,98566.47
2022-12-01T17:56:10.990Z,98564.81
2022-12-01T17:58:12.489Z,98573.91
2022-12-01T18:00:16.781Z,98575.94
2022-12-01T18:02:18.094Z,98581.25
2022-12-01T18:04:19.428Z,98583.94
2022-12-01T18:06:20.747Z,98573.78
2022-12-01T18:08:22.054Z,98573.00
2022-12-01T18:10:23.341Z,98568.81
2022-12-01T18:12:24.673Z,98573.13
2022-12-01T18:14:25.976Z,98575.69
2022-12-01T18:16:27.355Z,98579.09
2022-12-01T18:18:28.897Z,98582.50
2022-12-01T18:20:30.204Z,98574.00
2022-12-01T18:22:31.524Z,98581.66
2022-12-01T18:24:32.920Z,98575.75
2022-12-01T18:26:34.201Z,98577.47
2022-12-01T18:28:35.533Z,98569.03
2022-12-01T18:30:36.853Z,98574.19
2022-12-01T18:32:38.185Z,98568.00
2022-12-01T18:34:39.509Z,98555.63
2022-12-01T18:36:43.636Z,98561.28
2022-12-01T18:38:46.813Z,98560.28
2022-12-01T18:40:48.154Z,98561.59
2022-12-01T18:42:50.634Z,98559.59
2022-12-01T18:44:52.115Z,98559.72
2022-12-01T18:46:53.661Z,98561.03
2022-12-01T18:49:00.450Z,98561.38
2022-12-01T18:51:01.860Z,98560.31
2022-12-01T18:53:03.187Z,98555.78
2022-12-01T18:55:10.316Z,98555.72
2022-12-01T18:57:12.014Z,98552.16
2022-12-01T18:59:13.977Z,98553.94
2022-12-01T19:01:15.319Z,98549.97
2022-12-01T19:03:16.830Z,98561.97
2022-12-01T19:05:21.372Z,98552.09
2022-12-01T19:07:26.629Z,98554.63
2022-12-01T19:09:30.961Z,98553.72
2022-12-01T19:11:33.179Z,98557.09
2022-12-01T19:13:34.520Z,98553.78
2022-12-01T19:15:35.811Z,98555.25
2022-12-01T19:17:37.130Z,98548.91
2022-12-01T19:19:38.436Z,98553.16
2022-12-01T19:21:39.737Z,98549.75
2022-12-01T19:23:41.040Z,98544.03
2022-12-01T19:25:42.353Z,98540.84
2022-12-01T19:29:46.209Z,98542.75
2022-12-01T19:31:53.656Z,98538.66
2022-12-01T19:33:57.941Z,98546.38
2022-12-01T19:35:59.232Z,98540.38
2022-12-01T19:38:00.533Z,98547.81
2022-12-01T19:40:04.698Z,98541.63
2022-12-01T19:42:06.061Z,98534.06
2022-12-01T19:44:07.394Z,98535.16
2022-12-01T19:46:08.710Z,98533.50
2022-12-01T19:48:10.109Z,98534.31
2022-12-01T19:50:11.400Z,98543.53
2022-12-01T19:52:12.721Z,98533.41
2022-12-01T19:54:14.060Z,98541.00
2022-12-01T19:56:15.340Z,98533.44
2022-12-01T19:58:16.629Z,98533.44
2022-12-01T20:00:17.940Z,98533.28
2022-12-01T20:02:22.958Z,98530.84
2022-12-01T20:04:27.383Z,98537.56
2022-12-01T20:06:34.549Z,98534.69
2022-12-01T20:08:36.280Z,98541.63
2022-12-01T20:10:37.657Z,98542.28
2022-12-01T20:12:39.013Z,98540.47
2022-12-01T20:14:40.371Z,98542.97
2022-12-01T20:16:41.681Z,98544.41
2022-12-01T20:18:43.065Z,98544.84
2022-12-01T20:20:44.349Z,98538.72
2022-12-01T20:22:45.640Z,98539.19
2022-12-01T20:24:46.934Z,98535.69
2022-12-01T20:26:48.261Z,98533.13
2022-12-01T20:28:49.580Z,98538.19
2022-12-01T20:30:50.904Z,98542.56
2022-12-01T20:32:52.232Z,98532.13
2022-12-01T20:34:53.660Z,98532.38
2022-12-01T20:36:55.085Z,98525.25
2022-12-01T20:38:56.409Z,98533.09
2022-12-01T20:40:57.710Z,98538.06
2022-12-01T20:42:59.043Z,98537.63
2022-12-01T20:45:00.324Z,98534.13
2022-12-01T20:47:01.749Z,98531.34
2022-12-01T20:49:03.482Z,98531.28
2022-12-01T20:51:04.760Z,98527.25
2022-12-01T20:53:06.048Z,98532.50
2022-12-01T20:55:07.360Z,98532.56
2022-12-01T20:57:08.797Z,98530.81
2022-12-01T20:59:10.105Z,98529.97
2022-12-01T21:01:11.438Z,98528.22
2022-12-01T21:03:12.751Z,98525.69
2022-12-01T21:05:14.468Z,98530.22
2022-12-01T21:07:15.756Z,98520.84
2022-12-01T21:09:20.702Z,98526.56
2022-12-01T21:11:44.736Z,98538.13
2022-12-01T21:13:46.224Z,98528.72
2022-12-01T21:15:47.552Z,98537.81
2022-12-01T21:17:48.836Z,98526.22
2022-12-01T21:19:53.362Z,98533.44
2022-12-01T21:21:54.680Z,98521.19
2022-12-01T21:23:56.000Z,98533.56
2022-12-01T21:25:57.297Z,98517.91
2022-12-01T21:27:58.572Z,98524.41
2022-12-01T21:30:09.587Z,98519.00
2022-12-01T21:32:10.861Z,98516.97
2022-12-01T21:34:12.140Z,98509.97
2022-12-01T21:36:13.422Z,98509.84
2022-12-01T21:38:20.466Z,98508.81
2022-12-01T21:40:23.577Z,98519.81
2022-12-01T21:42:24.856Z,98514.69
2022-12-01T21:44:26.137Z,98515.53
2022-12-01T21:46:27.449Z,98517.19
2022-12-01T21:48:29.521Z,98522.31
2022-12-01T21:50:32.725Z,98511.28
2022-12-01T21:52:34.028Z,98517.19
2022-12-01T21:54:35.310Z,98507.78
2022-12-01T21:56:36.588Z,98511.19
2022-12-01T21:58:37.912Z,98503.53
2022-12-01T22:00:39.194Z,98509.56
2022-12-01T22:02:40.585Z,98507.00
2022-12-01T22:04:43.316Z,98491.81
2022-12-01T22:06:45.566Z,98501.22
2022-12-01T22:08:46.920Z,98502.16
2022-12-01T22:10:48.224Z,98500.59
2022-12-01T22:12:49.509Z,98498.09
2022-12-01T22:14:50.862Z,98504.09
2022-12-01T22:16:52.364Z,98500.75
2022-12-01T22:18:53.657Z,98497.44
2022-12-01T22:20:54.945Z,98500.97
2022-12-01T22:22:56.579Z,98504.47
2022-12-01T22:24:57.867Z,98502.00
2022-12-01T22:26:59.149Z,98494.41
2022-12-01T22:29:03.225Z,98491.09
2022-12-01T22:31:04.541Z,98495.41
2022-12-01T22:33:06.028Z,98490.34
2022-12-01T22:35:07.345Z,98490.41
2022-12-01T22:37:08.629Z,98488.75
2022-12-01T22:39:09.909Z,98486.28
2022-12-01T22:41:13.993Z,98488.84
2022-12-01T22:43:15.293Z,98489.75
2022-12-01T22:45:16.628Z,98488.88
2022-12-01T22:47:17.945Z,98487.19
2022-12-01T22:49:20.706Z,98484.63
2022-12-01T22:51:22.159Z,98486.28
2022-12-01T22:53:23.557Z,98483.75
2022-12-01T22:55:24.839Z,98486.28
2022-12-01T22:57:26.176Z,98482.03
2022-12-01T22:59:27.508Z,98487.91
2022-12-01T23:01:28.888Z,98487.81
2022-12-01T23:03:30.232Z,98482.63
2022-12-01T23:05:31.630Z,98485.00
2022-12-01T23:07:33.023Z,98472.13
2022-12-01T23:09:34.351Z,98471.19
2022-12-01T23:11:35.628Z,98461.72
2022-12-01T23:13:36.922Z,98465.94
2022-12-01T23:15:38.286Z,98469.25
2022-12-01T23:17:40.666Z,98468.31
2022-12-01T23:19:41.996Z,98469.16
2022-12-01T23:21:43.296Z,98464.00
2022-12-01T23:23:44.615Z,98459.69
2022-12-01T23:25:45.945Z,98462.25
2022-12-01T23:27:47.224Z,98459.75
2022-12-01T23:29:48.512Z,98462.28
2022-12-01T23:31:49.823Z,98458.09
2022-12-01T23:33:51.137Z,98456.44
2022-12-01T23:35:52.477Z,98452.31
2022-12-01T23:37:54.041Z,98456.53
2022-12-01T23:39:55.368Z,98458.09
2022-12-01T23:41:56.645Z,98457.22
2022-12-01T23:43:57.928Z,98455.56
2022-12-01T23:45:59.234Z,98454.81
2022-12-01T23:48:00.535Z,98458.31
2022-12-01T23:50:01.853Z,98461.81
2022-12-01T23:52:03.193Z,98456.75
2022-12-01T23:54:04.477Z,98456.00
2022-12-01T23:56:06.676Z,98453.53